Terminal Aerodrome Forecast
Issued by NWS Cleveland, OH

Home | Current Version | Previous Version | Text Only | Print | Product List | Glossary Off
Versions: 1 2 3 4 5 6 7 8 9 10 11 12 13 14

266
FTUS41 KCLE 261726
TAFERI
TAF
KERI 261726Z 2618/2718 20012G18KT 5SM -SHRA OVC025
      TEMPO 2618/2622 P6SM NSW SCT025 OVC040
     FM262200 26015KT P6SM SCT025 OVC040
     FM270600 23015G25KT P6SM SCT050=

USA.gov is the U.S. government's official web portal to all federal, state and local government web resources and services.